sensor_id;sensor_type;location;lat;lon;timestamp;pressure;altitude;pressure_sealevel;temperature;humidity
77325;BME280;66387;53.440;10.390;2023-02-01T00:01:17;100414.94;;;3.97;82.08
77325;BME280;66387;53.440;10.390;2023-02-01T00:03:43;100400.22;;;3.84;82.03
77325;BME280;66387;53.440;10.390;2023-02-01T00:06:08;100405.31;;;3.78;82.46
77325;BME280;66387;53.440;10.390;2023-02-01T00:08:34;100414.66;;;3.74;83.52
77325;BME280;66387;53.440;10.390;2023-02-01T00:11:04;100423.94;;;3.65;84.21
77325;BME280;66387;53.440;10.390;2023-02-01T00:13:31;100418.78;;;3.62;84.44
77325;BME280;66387;53.440;10.390;2023-02-01T00:16:08;100410.28;;;3.64;84.60
77325;BME280;66387;53.440;10.390;2023-02-01T00:18:34;100410.25;;;3.63;84.42
77325;BME280;66387;53.440;10.390;2023-02-01T00:20:59;100400.03;;;3.66;84.56
77325;BME280;66387;53.440;10.390;2023-02-01T00:23:25;100412.03;;;3.67;84.12
77325;BME280;66387;53.440;10.390;2023-02-01T00:25:50;100405.16;;;3.66;84.93
77325;BME280;66387;53.440;10.390;2023-02-01T00:28:16;100391.50;;;3.70;85.13
77325;BME280;66387;53.440;10.390;2023-02-01T00:30:41;100403.53;;;3.74;84.71
77325;BME280;66387;53.440;10.390;2023-02-01T00:33:06;100389.88;;;3.79;84.57
77325;BME280;66387;53.440;10.390;2023-02-01T00:35:33;100386.50;;;3.83;84.18
77325;BME280;66387;53.440;10.390;2023-02-01T00:37:59;100390.84;;;3.86;83.73
77325;BME280;66387;53.440;10.390;2023-02-01T00:40:25;100386.56;;;3.88;84.04
77325;BME280;66387;53.440;10.390;2023-02-01T00:42:50;100394.28;;;3.91;83.03
77325;BME280;66387;53.440;10.390;2023-02-01T00:45:16;100392.63;;;3.93;83.53
77325;BME280;66387;53.440;10.390;2023-02-01T00:47:41;100381.63;;;4.06;82.71
77325;BME280;66387;53.440;10.390;2023-02-01T00:50:07;100381.63;;;4.08;83.09
77325;BME280;66387;53.440;10.390;2023-02-01T00:52:32;100387.66;;;4.11;81.77
77325;BME280;66387;53.440;10.390;2023-02-01T00:54:57;100396.25;;;4.16;81.68
77325;BME280;66387;53.440;10.390;2023-02-01T00:57:22;100380.06;;;4.22;82.02
77325;BME280;66387;53.440;10.390;2023-02-01T00:59:48;100386.94;;;4.27;81.82
77325;BME280;66387;53.440;10.390;2023-02-01T01:02:13;100392.91;;;4.25;82.51
77325;BME280;66387;53.440;10.390;2023-02-01T01:04:39;100387.78;;;4.26;82.88
77325;BME280;66387;53.440;10.390;2023-02-01T01:07:04;100396.41;;;4.33;82.12
77325;BME280;66387;53.440;10.390;2023-02-01T01:09:30;100395.56;;;4.34;82.87
77325;BME280;66387;53.440;10.390;2023-02-01T01:11:55;100379.34;;;4.41;82.70
77325;BME280;66387;53.440;10.390;2023-02-01T01:14:20;100375.03;;;4.37;82.38
77325;BME280;66387;53.440;10.390;2023-02-01T01:16:45;100363.09;;;4.40;83.27
77325;BME280;66387;53.440;10.390;2023-02-01T01:19:11;100383.59;;;4.37;82.99
77325;BME280;66387;53.440;10.390;2023-02-01T01:21:36;100368.22;;;4.42;82.73
77325;BME280;66387;53.440;10.390;2023-02-01T01:24:02;100364.78;;;4.44;82.05
77325;BME280;66387;53.440;10.390;2023-02-01T01:26:28;100375.06;;;4.44;82.62
77325;BME280;66387;53.440;10.390;2023-02-01T01:28:55;100362.25;;;4.49;81.72
77325;BME280;66387;53.440;10.390;2023-02-01T01:31:21;100359.75;;;4.55;81.84
77325;BME280;66387;53.440;10.390;2023-02-01T01:33:55;100366.59;;;4.55;82.03
77325;BME280;66387;53.440;10.390;2023-02-01T01:36:22;100359.75;;;4.57;81.12
77325;BME280;66387;53.440;10.390;2023-02-01T01:38:47;100356.31;;;4.55;81.88
77325;BME280;66387;53.440;10.390;2023-02-01T01:41:16;100352.88;;;4.56;81.36
77325;BME280;66387;53.440;10.390;2023-02-01T01:43:52;100350.34;;;4.59;82.09
77325;BME280;66387;53.440;10.390;2023-02-01T01:46:19;100340.91;;;4.59;81.42
77325;BME280;66387;53.440;10.390;2023-02-01T01:48:46;100338.34;;;4.59;82.11
77325;BME280;66387;53.440;10.390;2023-02-01T01:51:14;100327.19;;;4.56;81.80
77325;BME280;66387;53.440;10.390;2023-02-01T01:53:53;100334.91;;;4.57;82.12
77325;BME280;66387;53.440;10.390;2023-02-01T01:56:19;100330.63;;;4.55;81.80
77325;BME280;66387;53.440;10.390;2023-02-01T01:58:44;100325.50;;;4.61;82.02
77325;BME280;66387;53.440;10.390;2023-02-01T02:01:10;100314.38;;;4.63;81.10
77325;BME280;66387;53.440;10.390;2023-02-01T02:03:39;100317.81;;;4.62;81.50
77325;BME280;66387;53.440;10.390;2023-02-01T02:08:52;100303.22;;;4.63;82.19
77325;BME280;66387;53.440;10.390;2023-02-01T02:11:18;100300.66;;;4.60;81.22
77325;BME280;66387;53.440;10.390;2023-02-01T02:13:48;100299.78;;;4.56;82.24
77325;BME280;66387;53.440;10.390;2023-02-01T02:34:31;100270.66;;;4.59;81.47
77325;BME280;66387;53.440;10.390;2023-02-01T02:37:10;100275.81;;;4.59;82.22
77325;BME280;66387;53.440;10.390;2023-02-01T02:42:37;100263.75;;;4.47;84.04
77325;BME280;66387;53.440;10.390;2023-02-01T02:45:41;100273.09;;;4.36;86.29
77325;BME280;66387;53.440;10.390;2023-02-01T02:48:36;100261.94;;;4.29;85.80
77325;BME280;66387;53.440;10.390;2023-02-01T02:51:14;100263.63;;;4.30;86.23
77325;BME280;66387;53.440;10.390;2023-02-01T02:54:13;100264.50;;;4.31;85.46
77325;BME280;66387;53.440;10.390;2023-02-01T02:56:59;100257.69;;;4.36;85.38
77325;BME280;66387;53.440;10.390;2023-02-01T02:59:47;100266.25;;;4.38;85.91
77325;BME280;66387;53.440;10.390;2023-02-01T03:02:31;100260.22;;;4.34;85.51
77325;BME280;66387;53.440;10.390;2023-02-01T03:05:16;100270.53;;;4.37;84.94
77325;BME280;66387;53.440;10.390;2023-02-01T03:08:02;100262.84;;;4.42;84.64
77325;BME280;66387;53.440;10.390;2023-02-01T03:16:02;100250.81;;;4.32;85.80
77325;BME280;66387;53.440;10.390;2023-02-01T03:19:09;100237.91;;;4.24;86.57
77325;BME280;66387;53.440;10.390;2023-02-01T03:21:49;100243.06;;;4.30;85.64
77325;BME280;66387;53.440;10.390;2023-02-01T03:24:20;100225.94;;;4.28;85.34
77325;BME280;66387;53.440;10.390;2023-02-01T03:26:54;100230.22;;;4.26;85.02
77325;BME280;66387;53.440;10.390;2023-02-01T03:29:45;100231.06;;;4.25;84.77
77325;BME280;66387;53.440;10.390;2023-02-01T03:32:12;100225.09;;;4.26;85.29
77325;BME280;66387;53.440;10.390;2023-02-01T03:34:38;100233.59;;;4.20;86.25
77325;BME280;66387;53.440;10.390;2023-02-01T03:37:08;100229.31;;;4.18;86.84
77325;BME280;66387;53.440;10.390;2023-02-01T03:39:45;100231.84;;;4.13;87.31
77325;BME280;66387;53.440;10.390;2023-02-01T03:42:16;100228.41;;;4.13;87.32
77325;BME280;66387;53.440;10.390;2023-02-01T03:47:34;100242.03;;;4.00;88.55
77325;BME280;66387;53.440;10.390;2023-02-01T03:50:09;100255.66;;;3.89;89.92
77325;BME280;66387;53.440;10.390;2023-02-01T03:52:43;100248.66;;;3.76;90.90
77325;BME280;66387;53.440;10.390;2023-02-01T03:55:10;100246.03;;;3.69;91.17
77325;BME280;66387;53.440;10.390;2023-02-01T03:57:39;100240.03;;;3.65;90.42
77325;BME280;66387;53.440;10.390;2023-02-01T04:00:16;100254.34;;;3.43;91.90
77325;BME280;66387;53.440;10.390;2023-02-01T04:02:42;100238.00;;;3.31;92.05
77325;BME280;66387;53.440;10.390;2023-02-01T04:05:08;100243.03;;;3.22;91.19
77325;BME280;66387;53.440;10.390;2023-02-01T04:07:33;100218.25;;;3.25;92.37
77325;BME280;66387;53.440;10.390;2023-02-01T04:09:58;100201.91;;;3.13;91.15
77325;BME280;66387;53.440;10.390;2023-02-01T04:12:23;100198.44;;;3.11;91.28
77325;BME280;66387;53.440;10.390;2023-02-01T04:14:49;100209.59;;;3.14;92.01
77325;BME280;66387;53.440;10.390;2023-02-01T04:17:14;100203.66;;;3.17;90.98
77325;BME280;66387;53.440;10.390;2023-02-01T04:19:39;100205.38;;;3.21;91.74
77325;BME280;66387;53.440;10.390;2023-02-01T04:22:05;100202.91;;;3.28;91.34
77325;BME280;66387;53.440;10.390;2023-02-01T04:24:30;100194.47;;;3.38;91.13
77325;BME280;66387;53.440;10.390;2023-02-01T04:26:55;100197.88;;;3.40;91.33
77325;BME280;66387;53.440;10.390;2023-02-01T04:29:20;100191.06;;;3.42;90.78
77325;BME280;66387;53.440;10.390;2023-02-01T04:31:45;100187.69;;;3.45;91.92
77325;BME280;66387;53.440;10.390;2023-02-01T04:34:11;100185.16;;;3.54;91.29
77325;BME280;66387;53.440;10.390;2023-02-01T04:36:36;100172.34;;;3.54;90.33
77325;BME280;66387;53.440;10.390;2023-02-01T04:39:02;100184.38;;;3.61;90.14
77325;BME280;66387;53.440;10.390;2023-02-01T04:41:27;100180.91;;;3.53;89.70
77325;BME280;66387;53.440;10.390;2023-02-01T04:43:53;100176.66;;;3.58;90.40
77325;BME280;66387;53.440;10.390;2023-02-01T04:46:18;100173.25;;;3.59;89.59
77325;BME280;66387;53.440;10.390;2023-02-01T04:48:43;100170.72;;;3.64;88.58
77325;BME280;66387;53.440;10.390;2023-02-01T04:51:10;100157.00;;;3.60;88.65
77325;BME280;66387;53.440;10.390;2023-02-01T04:53:35;100162.13;;;3.62;87.96
77325;BME280;66387;53.440;10.390;2023-02-01T04:56:00;100164.69;;;3.62;88.83
77325;BME280;66387;53.440;10.390;2023-02-01T04:58:26;100159.56;;;3.60;88.16
77325;BME280;66387;53.440;10.390;2023-02-01T05:00:51;100162.97;;;3.61;88.85
77325;BME280;66387;53.440;10.390;2023-02-01T05:03:17;100156.97;;;3.59;88.94
77325;BME280;66387;53.440;10.390;2023-02-01T05:05:42;100153.50;;;3.54;90.04
77325;BME280;66387;53.440;10.390;2023-02-01T05:08:07;100157.78;;;3.52;90.10
77325;BME280;66387;53.440;10.390;2023-02-01T05:10:32;100158.59;;;3.47;89.65
77325;BME280;66387;53.440;10.390;2023-02-01T05:12:58;100163.78;;;3.54;89.47
77325;BME280;66387;53.440;10.390;2023-02-01T05:15:41;100164.66;;;3.53;90.25
77325;BME280;66387;53.440;10.390;2023-02-01T05:18:07;100159.44;;;3.46;90.02
77325;BME280;66387;53.440;10.390;2023-02-01T05:20:32;100159.47;;;3.48;90.48
77325;BME280;66387;53.440;10.390;2023-02-01T05:22:57;100152.56;;;3.42;91.24
77325;BME280;66387;53.440;10.390;2023-02-01T05:25:22;100156.78;;;3.34;91.15
77325;BME280;66387;53.440;10.390;2023-02-01T05:27:48;100172.06;;;3.22;90.71
77325;BME280;66387;53.440;10.390;2023-02-01T05:30:13;100168.50;;;3.10;91.19
77325;BME280;66387;53.440;10.390;2023-02-01T05:32:39;100182.06;;;2.96;90.86
77325;BME280;66387;53.440;10.390;2023-02-01T05:35:04;100192.06;;;2.74;90.87
77325;BME280;66387;53.440;10.390;2023-02-01T05:37:30;100178.19;;;2.57;91.30
77325;BME280;66387;53.440;10.390;2023-02-01T05:39:55;100179.75;;;2.45;91.99
77325;BME280;66387;53.440;10.390;2023-02-01T05:42:20;100163.50;;;2.42;91.81
77325;BME280;66387;53.440;10.390;2023-02-01T05:44:46;100152.06;;;2.14;91.34
77325;BME280;66387;53.440;10.390;2023-02-01T05:47:11;100148.44;;;2.00;91.68
77325;BME280;66387;53.440;10.390;2023-02-01T05:49:37;100146.59;;;1.90;92.02
77325;BME280;66387;53.440;10.390;2023-02-01T05:52:02;100143.16;;;1.88;92.72
77325;BME280;66387;53.440;10.390;2023-02-01T05:54:28;100151.66;;;1.87;92.27
77325;BME280;66387;53.440;10.390;2023-02-01T05:56:53;100169.50;;;1.82;92.47
77325;BME280;66387;53.440;10.390;2023-02-01T05:59:18;100166.97;;;1.84;92.22
77325;BME280;66387;53.440;10.390;2023-02-01T06:01:44;100183.00;;;1.72;91.59
77325;BME280;66387;53.440;10.390;2023-02-01T06:04:09;100180.94;;;1.50;92.22
77325;BME280;66387;53.440;10.390;2023-02-01T06:06:34;100188.38;;;1.36;92.05
77325;BME280;66387;53.440;10.390;2023-02-01T06:09:00;100187.75;;;1.49;92.27
77325;BME280;66387;53.440;10.390;2023-02-01T06:11:25;100197.06;;;1.44;92.12
77325;BME280;66387;53.440;10.390;2023-02-01T06:13:51;100196.97;;;1.38;92.09
77325;BME280;66387;53.440;10.390;2023-02-01T06:16:16;100198.34;;;1.21;92.97
77325;BME280;66387;53.440;10.390;2023-02-01T06:18:42;100188.44;;;1.39;92.95
77325;BME280;66387;53.440;10.390;2023-02-01T06:21:07;100179.97;;;1.43;93.08
77325;BME280;66387;53.440;10.390;2023-02-01T06:23:33;100183.56;;;1.55;92.45
77325;BME280;66387;53.440;10.390;2023-02-01T06:26:01;100181.06;;;1.56;93.14
77325;BME280;66387;53.440;10.390;2023-02-01T06:28:28;100187.13;;;1.63;92.98
77325;BME280;66387;53.440;10.390;2023-02-01T06:30:53;100185.69;;;1.78;92.54
77325;BME280;66387;53.440;10.390;2023-02-01T06:33:19;100181.47;;;1.82;92.83
77325;BME280;66387;53.440;10.390;2023-02-01T06:35:44;100188.34;;;1.87;92.72
77325;BME280;66387;53.440;10.390;2023-02-01T06:38:11;100177.28;;;1.90;92.03
77325;BME280;66387;53.440;10.390;2023-02-01T06:40:37;100175.69;;;1.95;93.00
77325;BME280;66387;53.440;10.390;2023-02-01T06:43:02;100167.06;;;1.90;92.76
77325;BME280;66387;53.440;10.390;2023-02-01T06:45:28;100168.59;;;1.79;93.33
77325;BME280;66387;53.440;10.390;2023-02-01T06:47:53;100172.13;;;1.87;93.14
77325;BME280;66387;53.440;10.390;2023-02-01T06:50:18;100162.84;;;1.93;93.40
77325;BME280;66387;53.440;10.390;2023-02-01T06:52:44;100162.16;;;2.05;93.38
77325;BME280;66387;53.440;10.390;2023-02-01T06:55:09;100166.41;;;2.03;93.43
77325;BME280;66387;53.440;10.390;2023-02-01T06:57:34;100185.34;;;2.14;92.78
77325;BME280;66387;53.440;10.390;2023-02-01T07:00:02;100177.84;;;2.28;92.99
77325;BME280;66387;53.440;10.390;2023-02-01T07:02:27;100177.91;;;2.32;92.89
77325;BME280;66387;53.440;10.390;2023-02-01T07:04:53;100166.78;;;2.32;92.88
77325;BME280;66387;53.440;10.390;2023-02-01T07:07:18;100166.00;;;2.37;93.00
77325;BME280;66387;53.440;10.390;2023-02-01T07:09:44;100154.19;;;2.47;92.16
77325;BME280;66387;53.440;10.390;2023-02-01T07:12:10;100167.88;;;2.51;93.16
77325;BME280;66387;53.440;10.390;2023-02-01T07:14:35;100167.13;;;2.59;93.11
77325;BME280;66387;53.440;10.390;2023-02-01T07:17:00;100158.69;;;2.68;93.39
77325;BME280;66387;53.440;10.390;2023-02-01T07:19:25;100174.13;;;2.74;92.81
77325;BME280;66387;53.440;10.390;2023-02-01T07:21:51;100169.09;;;2.84;93.22
77325;BME280;66387;53.440;10.390;2023-02-01T07:24:16;100163.19;;;2.90;92.95
77325;BME280;66387;53.440;10.390;2023-02-01T07:26:41;100164.06;;;2.92;93.07
77325;BME280;66387;53.440;10.390;2023-02-01T07:29:06;100164.16;;;3.03;92.74
77325;BME280;66387;53.440;10.390;2023-02-01T07:31:32;100166.88;;;3.13;92.55
77325;BME280;66387;53.440;10.390;2023-02-01T07:33:57;100168.59;;;3.17;92.74
77325;BME280;66387;53.440;10.390;2023-02-01T07:36:23;100152.38;;;3.21;92.48
77325;BME280;66387;53.440;10.390;2023-02-01T07:38:48;100169.53;;;3.24;93.06
77325;BME280;66387;53.440;10.390;2023-02-01T07:41:14;100170.38;;;3.24;92.54
77325;BME280;66387;53.440;10.390;2023-02-01T07:43:40;100152.44;;;3.26;92.42
77325;BME280;66387;53.440;10.390;2023-02-01T07:46:06;100161.91;;;3.31;92.21
77325;BME280;66387;53.440;10.390;2023-02-01T07:48:31;100166.19;;;3.31;92.39
77325;BME280;66387;53.440;10.390;2023-02-01T07:50:58;100178.22;;;3.38;92.77
77325;BME280;66387;53.440;10.390;2023-02-01T07:53:24;100186.78;;;3.43;92.54
77325;BME280;66387;53.440;10.390;2023-02-01T07:55:49;100177.38;;;3.43;92.53
77325;BME280;66387;53.440;10.390;2023-02-01T07:58:15;100175.66;;;3.42;92.95
77325;BME280;66387;53.440;10.390;2023-02-01T08:00:40;100169.72;;;3.45;92.67
77325;BME280;66387;53.440;10.390;2023-02-01T08:03:24;100156.91;;;3.48;92.05
77325;BME280;66387;53.440;10.390;2023-02-01T08:05:56;100168.03;;;3.49;92.66
77325;BME280;66387;53.440;10.390;2023-02-01T08:08:22;100150.06;;;3.45;92.42
77325;BME280;66387;53.440;10.390;2023-02-01T08:10:47;100165.41;;;3.42;92.65
77325;BME280;66387;53.440;10.390;2023-02-01T08:13:14;100168.88;;;3.46;93.02
77325;BME280;66387;53.440;10.390;2023-02-01T08:15:39;100150.94;;;3.51;92.31
77325;BME280;66387;53.440;10.390;2023-02-01T08:18:05;100163.84;;;3.60;92.18
77325;BME280;66387;53.440;10.390;2023-02-01T08:20:31;100169.84;;;3.65;92.62
77325;BME280;66387;53.440;10.390;2023-02-01T08:22:56;100178.47;;;3.70;92.13
77325;BME280;66387;53.440;10.390;2023-02-01T08:25:23;100170.78;;;3.73;91.70
77325;BME280;66387;53.440;10.390;2023-02-01T08:27:49;100176.84;;;3.82;92.07
77325;BME280;66387;53.440;10.390;2023-02-01T08:30:15;100177.75;;;3.89;91.26
77325;BME280;66387;53.440;10.390;2023-02-01T08:32:40;100169.19;;;3.90;92.39
77325;BME280;66387;53.440;10.390;2023-02-01T08:35:06;100176.13;;;4.00;90.73
77325;BME280;66387;53.440;10.390;2023-02-01T08:37:31;100177.81;;;4.00;91.71
77325;BME280;66387;53.440;10.390;2023-02-01T08:39:57;100196.69;;;4.03;92.12
77325;BME280;66387;53.440;10.390;2023-02-01T08:42:22;100188.13;;;4.07;91.49
77325;BME280;66387;53.440;10.390;2023-02-01T08:45:06;100191.63;;;4.18;91.02
77325;BME280;66387;53.440;10.390;2023-02-01T08:47:33;100189.13;;;4.29;89.94
77325;BME280;66387;53.440;10.390;2023-02-01T08:49:58;100193.44;;;4.37;90.42
77325;BME280;66387;53.440;10.390;2023-02-01T08:52:23;100190.91;;;4.47;90.20
77325;BME280;66387;53.440;10.390;2023-02-01T08:54:49;100172.94;;;4.53;90.14
77325;BME280;66387;53.440;10.390;2023-02-01T08:57:14;100164.44;;;4.66;88.97
77325;BME280;66387;53.440;10.390;2023-02-01T08:59:40;100179.00;;;4.67;89.12
77325;BME280;66387;53.440;10.390;2023-02-01T09:02:05;100164.44;;;4.67;88.97
77325;BME280;66387;53.440;10.390;2023-02-01T09:04:30;100166.16;;;4.71;88.92
77325;BME280;66387;53.440;10.390;2023-02-01T09:06:55;100150.72;;;4.64;88.95
77325;BME280;66387;53.440;10.390;2023-02-01T09:09:22;100158.41;;;4.59;89.01
77325;BME280;66387;53.440;10.390;2023-02-01T09:11:48;100154.13;;;4.57;89.68
77325;BME280;66387;53.440;10.390;2023-02-01T09:14:16;100149.84;;;4.59;89.81
77325;BME280;66387;53.440;10.390;2023-02-01T09:16:42;100152.44;;;4.59;90.11
77325;BME280;66387;53.440;10.390;2023-02-01T09:19:08;100158.41;;;4.64;88.91
77325;BME280;66387;53.440;10.390;2023-02-01T09:21:34;100160.19;;;4.72;88.34
77325;BME280;66387;53.440;10.390;2023-02-01T09:24:00;100155.94;;;4.83;87.19
77325;BME280;66387;53.440;10.390;2023-02-01T09:26:26;100155.91;;;4.85;87.31
77325;BME280;66387;53.440;10.390;2023-02-01T09:28:51;100162.75;;;4.81;86.52
77325;BME280;66387;53.440;10.390;2023-02-01T09:31:17;100166.22;;;4.88;86.54
77325;BME280;66387;53.440;10.390;2023-02-01T09:33:42;100151.66;;;4.91;87.38
77325;BME280;66387;53.440;10.390;2023-02-01T09:36:08;100162.78;;;4.92;87.36
77325;BME280;66387;53.440;10.390;2023-02-01T09:38:34;100166.25;;;4.91;87.00
77325;BME280;66387;53.440;10.390;2023-02-01T09:41:00;100154.22;;;4.84;86.64
77325;BME280;66387;53.440;10.390;2023-02-01T09:43:47;100168.81;;;4.88;86.34
77325;BME280;66387;53.440;10.390;2023-02-01T09:46:26;100188.50;;;4.84;86.41
77325;BME280;66387;53.440;10.390;2023-02-01T09:48:57;100179.03;;;4.79;86.28
77325;BME280;66387;53.440;10.390;2023-02-01T09:51:34;100180.69;;;4.59;87.08
77325;BME280;66387;53.440;10.390;2023-02-01T09:54:11;100178.09;;;4.53;87.36
77325;BME280;66387;53.440;10.390;2023-02-01T09:56:47;100192.66;;;4.54;86.92
77325;BME280;66387;53.440;10.390;2023-02-01T09:59:38;100179.84;;;4.61;86.10
77325;BME280;66387;53.440;10.390;2023-02-01T10:02:12;100181.56;;;4.64;85.74
77325;BME280;66387;53.440;10.390;2023-02-01T10:04:39;100163.59;;;4.65;86.50
77325;BME280;66387;53.440;10.390;2023-02-01T10:09:57;100184.16;;;4.77;86.78
77325;BME280;66387;53.440;10.390;2023-02-01T10:15:28;100178.25;;;5.00;86.18
77325;BME280;66387;53.440;10.390;2023-02-01T10:23:29;100182.63;;;5.35;84.42
77325;BME280;66387;53.440;10.390;2023-02-01T10:26:23;100179.16;;;5.41;84.43
77325;BME280;66387;53.440;10.390;2023-02-01T10:28:57;100183.47;;;5.43;83.83
77325;BME280;66387;53.440;10.390;2023-02-01T10:31:30;100180.03;;;5.38;84.36
77325;BME280;66387;53.440;10.390;2023-02-01T10:34:06;100170.59;;;5.42;83.31
77325;BME280;66387;53.440;10.390;2023-02-01T10:36:44;100165.47;;;5.39;83.72
77325;BME280;66387;53.440;10.390;2023-02-01T10:39:14;100168.84;;;5.32;82.85
77325;BME280;66387;53.440;10.390;2023-02-01T10:41:40;100168.03;;;5.37;83.15
77325;BME280;66387;53.440;10.390;2023-02-01T10:44:14;100168.88;;;5.30;83.76
77325;BME280;66387;53.440;10.390;2023-02-01T10:46:40;100162.00;;;5.26;83.82
77325;BME280;66387;53.440;10.390;2023-02-01T10:49:13;100156.84;;;5.23;83.97
77325;BME280;66387;53.440;10.390;2023-02-01T10:54:20;100144.78;;;4.92;85.85
77325;BME280;66387;53.440;10.390;2023-02-01T10:56:47;100154.22;;;4.87;86.01
77325;BME280;66387;53.440;10.390;2023-02-01T10:59:18;100151.63;;;4.82;86.31
77325;BME280;66387;53.440;10.390;2023-02-01T11:01:46;100138.75;;;4.75;87.03
77325;BME280;66387;53.440;10.390;2023-02-01T11:04:17;100110.47;;;4.73;88.49
77325;BME280;66387;53.440;10.390;2023-02-01T11:06:47;100114.75;;;4.73;88.76
77325;BME280;66387;53.440;10.390;2023-02-01T11:09:19;100118.19;;;4.78;89.26
77325;BME280;66387;53.440;10.390;2023-02-01T11:14:15;100107.91;;;4.81;89.33
77325;BME280;66387;53.440;10.390;2023-02-01T11:16:47;100101.06;;;4.86;88.43
77325;BME280;66387;53.440;10.390;2023-02-01T11:19:14;100107.94;;;4.87;88.77
77325;BME280;66387;53.440;10.390;2023-02-01T11:21:41;100085.63;;;4.83;88.75
77325;BME280;66387;53.440;10.390;2023-02-01T11:24:20;100085.63;;;4.78;88.81
77325;BME280;66387;53.440;10.390;2023-02-01T11:26:47;100077.94;;;4.84;88.76
77325;BME280;66387;53.440;10.390;2023-02-01T11:29:15;100079.66;;;4.87;88.10
77325;BME280;66387;53.440;10.390;2023-02-01T11:31:44;100085.66;;;4.84;86.91
77325;BME280;66387;53.440;10.390;2023-02-01T11:34:20;100071.91;;;4.78;87.14
77325;BME280;66387;53.440;10.390;2023-02-01T11:36:48;100065.03;;;4.75;88.03
77325;BME280;66387;53.440;10.390;2023-02-01T11:49:51;100046.19;;;4.81;89.33
77325;BME280;66387;53.440;10.390;2023-02-01T11:52:36;100062.47;;;4.89;88.51
77325;BME280;66387;53.440;10.390;2023-02-01T11:58:21;100041.09;;;5.02;87.76
77325;BME280;66387;53.440;10.390;2023-02-01T12:09:21;100033.34;;;4.73;87.30
77325;BME280;66387;53.440;10.390;2023-02-01T12:14:55;100025.63;;;4.75;87.85
77325;BME280;66387;53.440;10.390;2023-02-01T12:30:52;100001.59;;;4.49;86.71
77325;BME280;66387;53.440;10.390;2023-02-01T12:39:07;99999.88;;;4.44;88.67
77325;BME280;66387;53.440;10.390;2023-02-01T12:41:41;100007.59;;;4.43;89.67
77325;BME280;66387;53.440;10.390;2023-02-01T12:44:19;99996.44;;;4.39;89.89
77325;BME280;66387;53.440;10.390;2023-02-01T12:46:53;99991.31;;;4.39;89.70
77325;BME280;66387;53.440;10.390;2023-02-01T12:52:04;99987.81;;;4.10;89.97
77325;BME280;66387;53.440;10.390;2023-02-01T12:54:40;100005.81;;;4.18;90.41
77325;BME280;66387;53.440;10.390;2023-02-01T12:57:33;100022.03;;;4.09;89.13
77325;BME280;66387;53.440;10.390;2023-02-01T13:02:47;100033.97;;;3.86;90.18
77325;BME280;66387;53.440;10.390;2023-02-01T13:05:21;100039.88;;;3.76;91.19
77325;BME280;66387;53.440;10.390;2023-02-01T13:07:51;100047.59;;;3.79;91.47
77325;BME280;66387;53.440;10.390;2023-02-01T13:11:07;100037.28;;;3.73;90.91
77325;BME280;66387;53.440;10.390;2023-02-01T13:13:29;100049.28;;;3.72;90.94
77325;BME280;66387;53.440;10.390;2023-02-01T13:16:11;100040.66;;;3.63;90.36
77325;BME280;66387;53.440;10.390;2023-02-01T13:18:41;100050.09;;;3.67;90.57
77325;BME280;66387;53.440;10.390;2023-02-01T13:21:27;100048.28;;;3.47;90.72
77325;BME280;66387;53.440;10.390;2023-02-01T13:23:54;100042.28;;;3.45;90.86
77325;BME280;66387;53.440;10.390;2023-02-01T13:26:19;100041.44;;;3.48;89.49
77325;BME280;66387;53.440;10.390;2023-02-01T13:28:49;100049.16;;;3.50;90.37
77325;BME280;66387;53.440;10.390;2023-02-01T13:39:59;100035.31;;;3.29;89.65
77325;BME280;66387;53.440;10.390;2023-02-01T13:42:57;100026.00;;;3.40;90.38
77325;BME280;66387;53.440;10.390;2023-02-01T13:45:24;100018.53;;;3.81;88.76
77325;BME280;66387;53.440;10.390;2023-02-01T13:47:54;100020.47;;;5.23;84.67
77325;BME280;66387;53.440;10.390;2023-02-01T13:50:27;100009.22;;;5.67;82.16
77325;BME280;66387;53.440;10.390;2023-02-01T13:53:04;100025.59;;;5.54;81.08
77325;BME280;66387;53.440;10.390;2023-02-01T13:55:41;100012.63;;;5.73;81.18
77325;BME280;66387;53.440;10.390;2023-02-01T13:58:39;100016.19;;;5.27;82.85
77325;BME280;66387;53.440;10.390;2023-02-01T14:03:50;100017.91;;;4.88;84.24
77325;BME280;66387;53.440;10.390;2023-02-01T14:06:36;100023.03;;;4.64;85.00
77325;BME280;66387;53.440;10.390;2023-02-01T14:09:31;100030.66;;;4.26;85.41
77325;BME280;66387;53.440;10.390;2023-02-01T14:12:41;100019.50;;;4.11;86.48
77325;BME280;66387;53.440;10.390;2023-02-01T14:14:44;100030.66;;;4.20;86.81
77325;BME280;66387;53.440;10.390;2023-02-01T14:19:35;100027.97;;;3.90;87.12
77325;BME280;66387;53.440;10.390;2023-02-01T14:24:53;100017.84;;;4.34;86.50
77325;BME280;66387;53.440;10.390;2023-02-01T14:27:22;100012.69;;;4.25;85.85
77325;BME280;66387;53.440;10.390;2023-02-01T14:29:55;100020.31;;;3.96;86.99
77325;BME280;66387;53.440;10.390;2023-02-01T14:32:24;100021.09;;;3.87;86.51
77325;BME280;66387;53.440;10.390;2023-02-01T14:34:55;100045.94;;;3.90;87.95
77325;BME280;66387;53.440;10.390;2023-02-01T14:39:53;100042.44;;;3.74;88.52
77325;BME280;66387;53.440;10.390;2023-02-01T14:42:32;100036.44;;;3.72;88.40
77325;BME280;66387;53.440;10.390;2023-02-01T14:47:47;100033.88;;;3.71;89.46
77325;BME280;66387;53.440;10.390;2023-02-01T14:50:22;100047.56;;;3.73;90.10
77325;BME280;66387;53.440;10.390;2023-02-01T14:57:55;100071.50;;;3.64;90.35
77325;BME280;66387;53.440;10.390;2023-02-01T15:00:28;100097.94;;;3.53;91.10
77325;BME280;66387;53.440;10.390;2023-02-01T15:03:01;100103.81;;;3.42;92.03
77325;BME280;66387;53.440;10.390;2023-02-01T15:05:38;100112.28;;;3.32;92.01
77325;BME280;66387;53.440;10.390;2023-02-01T15:08:15;100100.34;;;3.34;92.05